Cielo Di Vaiano — D5AQ2 — position and weather

sailwx.info

Track history (hours):
 
Tides and Currents Weather Stations Pressure Air Temp Water Temp Dewpoint Dewpoint Depression Visibility Wind Speed Wind Dir Waves Ship Positions

Cielo Di Vaiano

Last reported at 2014-Oct-31 07:25 UTC. Time now 2014-Nov-01 12:38 UTC.
Position N 38°22' W 010°27'.

Length 183 m; draft 7.4 m.

Type: Cargo ship. MMSI: 636015421.

Date/timePositionNaut miles runAvg speedWind from/ knotsBaromVisibWave heightAir tempDewpointWater temp
2014-Oct-31 07:25N 38°22' W 010°27'1213.7
2014-Oct-31 06:33N 38°10' W 010°24'1413.6
2014-Oct-31 05:33N 37°57' W 010°21'1413.8
2014-Oct-31 04:33N 37°44' W 010°17'1413.8
2014-Oct-31 03:33N 37°30' W 010°14'1313.2
2014-Oct-31 02:33N 37°17' W 010°10'1313.4
2014-Oct-31 01:33N 37°04' W 010°07'1313.3
2014-Oct-31 00:33N 36°51' W 010°02'1313.2
2014-Oct-30 23:33N 36°41' W 009°52'1313.0
2014-Oct-30 22:33N 36°30' W 009°43'1212.4
2014-Oct-30 21:33N 36°22' W 009°31'1313.1
2014-Oct-30 20:33N 36°19' W 009°15'1917.3
2014-Oct-30 19:29N 36°15' W 008°52'8 8.6
2014-Oct-30 18:33N 36°14' W 008°43'1313.3
2014-Oct-30 17:33N 36°14' W 008°26'1313.3
2014-Oct-30 16:33N 36°14' W 008°10'1413.4
2014-Oct-30 15:32N 36°14' W 007°53'11612.9
2014-Oct-30 06:33N 35°59' W 005°31'1110.9
2014-Oct-30 05:33N 36°08' W 005°23'2 1.4
2014-Oct-30 04:28N 36°10' W 005°23'0 0.0
2014-Oct-30 03:28N 36°10' W 005°23'0 0.0
2014-Oct-30 02:28N 36°10' W 005°23'0 0.0
2014-Oct-30 01:31N 36°10' W 005°23'0 0.0
2014-Oct-30 00:28N 36°10' W 005°23'0 0.0
2014-Oct-29 23:31N 36°10' W 005°23'0 0.0
2014-Oct-29 22:28N 36°10' W 005°23'0 0.0
2014-Oct-29 21:28N 36°10' W 005°23'3 3.6
2014-Oct-29 20:33N 36°06' W 005°23'3 2.9
2014-Oct-29 19:33N 36°05' W 005°20'  
2014-Oct-22 11:05N 37°34' W 001°05'0 0.3
2014-Oct-22 10:23N 37°33' W 001°04'0 0.0
2014-Oct-22 09:33N 37°33' W 001°04'0 0.0
2014-Oct-22 08:33N 37°33' W 001°04'0 0.0
2014-Oct-22 07:33N 37°33' W 001°04'0 0.0
2014-Oct-22 06:18N 37°33' W 001°04'0 0.0
2014-Oct-22 05:32N 37°33' W 001°04'0 0.0
2014-Oct-22 04:33N 37°33' W 001°04'0 0.0
2014-Oct-22 03:33N 37°33' W 001°04'0 0.0
2014-Oct-22 02:33N 37°33' W 001°04'0 0.0
2014-Oct-22 01:33N 37°33' W 001°04'0 0.2
2014-Oct-22 00:33N 37°34' W 001°04'0 0.0
2014-Oct-21 23:33N 37°34' W 001°04'0 0.0
2014-Oct-21 22:12N 37°34' W 001°04'0 0.1
2014-Oct-21 21:33N 37°34' W 001°04'0 0.0
2014-Oct-21 20:31N 37°34' W 001°04'0 0.0
2014-Oct-21 19:32N 37°34' W 001°04'0 0.1
2014-Oct-21 18:16N 37°34' W 001°04'0 0.0
2014-Oct-21 12:23N 37°34' W 001°04'0 0.0
2014-Oct-21 08:16N 37°34' W 001°05'0 0.1
2014-Oct-21 07:29N 37°34' W 001°05'  
Track history (hours):
 
Tides and Currents Weather Stations Pressure Air Temp Water Temp Dewpoint Dewpoint Depression Visibility Wind Speed Wind Dir Waves Ship Positions

Cielo Di Vaiano

Last reported at 2014-Oct-31 07:25 UTC. Time now 2014-Nov-01 12:38 UTC.
Position N 38°22' W 010°27'.

Length 183 m; draft 7.4 m.

Type: Cargo ship. MMSI: 636015421.

Date/timePositionNaut miles runAvg speedWind from/ knotsBaromVisibWave heightAir tempDewpointWater temp
2014-Oct-31 07:25N 38°22' W 010°27'1213.7
2014-Oct-31 06:33N 38°10' W 010°24'1413.6
2014-Oct-31 05:33N 37°57' W 010°21'1413.8
2014-Oct-31 04:33N 37°44' W 010°17'1413.8
2014-Oct-31 03:33N 37°30' W 010°14'1313.2
2014-Oct-31 02:33N 37°17' W 010°10'1313.4
2014-Oct-31 01:33N 37°04' W 010°07'1313.3
2014-Oct-31 00:33N 36°51' W 010°02'1313.2
2014-Oct-30 23:33N 36°41' W 009°52'1313.0
2014-Oct-30 22:33N 36°30' W 009°43'1212.4
2014-Oct-30 21:33N 36°22' W 009°31'1313.1
2014-Oct-30 20:33N 36°19' W 009°15'1917.3
2014-Oct-30 19:29N 36°15' W 008°52'8 8.6
2014-Oct-30 18:33N 36°14' W 008°43'1313.3
2014-Oct-30 17:33N 36°14' W 008°26'1313.3
2014-Oct-30 16:33N 36°14' W 008°10'1413.4
2014-Oct-30 15:32N 36°14' W 007°53'11612.9
2014-Oct-30 06:33N 35°59' W 005°31'1110.9
2014-Oct-30 05:33N 36°08' W 005°23'2 1.4
2014-Oct-30 04:28N 36°10' W 005°23'0 0.0
2014-Oct-30 03:28N 36°10' W 005°23'0 0.0
2014-Oct-30 02:28N 36°10' W 005°23'0 0.0
2014-Oct-30 01:31N 36°10' W 005°23'0 0.0
2014-Oct-30 00:28N 36°10' W 005°23'0 0.0
2014-Oct-29 23:31N 36°10' W 005°23'0 0.0
2014-Oct-29 22:28N 36°10' W 005°23'0 0.0
2014-Oct-29 21:28N 36°10' W 005°23'3 3.6
2014-Oct-29 20:33N 36°06' W 005°23'3 2.9
2014-Oct-29 19:33N 36°05' W 005°20'  
2014-Oct-22 11:05N 37°34' W 001°05'0 0.3
2014-Oct-22 10:23N 37°33' W 001°04'0 0.0
2014-Oct-22 09:33N 37°33' W 001°04'0 0.0
2014-Oct-22 08:33N 37°33' W 001°04'0 0.0
2014-Oct-22 07:33N 37°33' W 001°04'0 0.0
2014-Oct-22 06:18N 37°33' W 001°04'0 0.0
2014-Oct-22 05:32N 37°33' W 001°04'0 0.0
2014-Oct-22 04:33N 37°33' W 001°04'0 0.0
2014-Oct-22 03:33N 37°33' W 001°04'0 0.0
2014-Oct-22 02:33N 37°33' W 001°04'0 0.0
2014-Oct-22 01:33N 37°33' W 001°04'0 0.2
2014-Oct-22 00:33N 37°34' W 001°04'0 0.0
2014-Oct-21 23:33N 37°34' W 001°04'0 0.0
2014-Oct-21 22:12N 37°34' W 001°04'0 0.1
2014-Oct-21 21:33N 37°34' W 001°04'0 0.0
2014-Oct-21 20:31N 37°34' W 001°04'0 0.0
2014-Oct-21 19:32N 37°34' W 001°04'0 0.1
2014-Oct-21 18:16N 37°34' W 001°04'0 0.0
2014-Oct-21 12:23N 37°34' W 001°04'0 0.0
2014-Oct-21 08:16N 37°34' W 001°05'0 0.1
2014-Oct-21 07:29N 37°34' W 001°05'  

Dump ship's entire track history